sensor_id;sensor_type;location;lat;lon;timestamp;pressure;altitude;pressure_sealevel;temperature;humidity
77106;BME280;66057;54.718;18.426;2023-02-01T00:02:17;99560.88;;;3.58;88.53
77106;BME280;66057;54.718;18.426;2023-02-01T00:04:43;99550.94;;;3.62;86.77
77106;BME280;66057;54.718;18.426;2023-02-01T00:07:08;99566.63;;;3.54;89.31
77106;BME280;66057;54.718;18.426;2023-02-01T00:09:34;99563.31;;;3.38;88.94
77106;BME280;66057;54.718;18.426;2023-02-01T00:12:00;99579.69;;;3.27;90.87
77106;BME280;66057;54.718;18.426;2023-02-01T00:14:28;99570.16;;;3.23;92.42
77106;BME280;66057;54.718;18.426;2023-02-01T00:16:54;99565.59;;;3.16;92.04
77106;BME280;66057;54.718;18.426;2023-02-01T00:19:19;99561.38;;;3.17;90.46
77106;BME280;66057;54.718;18.426;2023-02-01T00:21:46;99586.41;;;3.27;90.84
77106;BME280;66057;54.718;18.426;2023-02-01T00:24:12;99531.94;;;3.20;91.89
77106;BME280;66057;54.718;18.426;2023-02-01T00:26:40;99549.38;;;3.30;90.14
77106;BME280;66057;54.718;18.426;2023-02-01T00:29:11;99559.69;;;3.33;89.90
77106;BME280;66057;54.718;18.426;2023-02-01T00:31:37;99526.66;;;3.33;89.24
77106;BME280;66057;54.718;18.426;2023-02-01T00:34:03;99561.44;;;3.34;90.10
77106;BME280;66057;54.718;18.426;2023-02-01T00:36:29;99570.47;;;3.29;89.63
77106;BME280;66057;54.718;18.426;2023-02-01T00:38:55;99535.69;;;3.44;87.32
77106;BME280;66057;54.718;18.426;2023-02-01T00:41:22;99584.59;;;3.40;87.88
77106;BME280;66057;54.718;18.426;2023-02-01T00:43:48;99584.44;;;3.37;86.75
77106;BME280;66057;54.718;18.426;2023-02-01T00:46:15;99542.66;;;3.48;87.22
77106;BME280;66057;54.718;18.426;2023-02-01T00:48:41;99575.25;;;3.57;84.99
77106;BME280;66057;54.718;18.426;2023-02-01T00:51:13;99610.38;;;3.48;86.57
77106;BME280;66057;54.718;18.426;2023-02-01T00:53:39;99566.31;;;3.65;82.61
77106;BME280;66057;54.718;18.426;2023-02-01T00:56:06;99543.19;;;3.59;84.13
77106;BME280;66057;54.718;18.426;2023-02-01T00:58:32;99575.00;;;3.69;83.80
77106;BME280;66057;54.718;18.426;2023-02-01T01:01:06;99602.28;;;3.73;83.15
77106;BME280;66057;54.718;18.426;2023-02-01T01:03:33;99569.91;;;3.69;83.02
77106;BME280;66057;54.718;18.426;2023-02-01T01:06:00;99564.69;;;3.83;82.07
77106;BME280;66057;54.718;18.426;2023-02-01T01:08:26;99570.84;;;3.71;82.64
77106;BME280;66057;54.718;18.426;2023-02-01T01:10:52;99560.19;;;3.78;81.68
77106;BME280;66057;54.718;18.426;2023-02-01T01:13:18;99568.91;;;3.83;80.77
77106;BME280;66057;54.718;18.426;2023-02-01T01:15:44;99550.81;;;3.94;80.08
77106;BME280;66057;54.718;18.426;2023-02-01T01:18:09;99545.38;;;3.87;81.25
77106;BME280;66057;54.718;18.426;2023-02-01T01:20:37;99566.63;;;3.89;80.68
77106;BME280;66057;54.718;18.426;2023-02-01T01:23:04;99554.66;;;3.86;80.45
77106;BME280;66057;54.718;18.426;2023-02-01T01:25:30;99621.94;;;3.93;78.96
77106;BME280;66057;54.718;18.426;2023-02-01T01:27:57;99584.03;;;3.98;79.10
77106;BME280;66057;54.718;18.426;2023-02-01T01:30:23;99560.19;;;3.95;78.85
77106;BME280;66057;54.718;18.426;2023-02-01T01:32:49;99555.09;;;3.95;78.83
77106;BME280;66057;54.718;18.426;2023-02-01T01:35:15;99530.25;;;3.90;79.76
77106;BME280;66057;54.718;18.426;2023-02-01T01:37:40;99557.00;;;3.82;80.17
77106;BME280;66057;54.718;18.426;2023-02-01T01:40:07;99585.31;;;3.89;80.24
77106;BME280;66057;54.718;18.426;2023-02-01T01:42:39;99602.66;;;3.80;81.47
77106;BME280;66057;54.718;18.426;2023-02-01T01:45:33;99585.88;;;3.84;80.62
77106;BME280;66057;54.718;18.426;2023-02-01T01:48:02;99551.81;;;3.80;80.73
77106;BME280;66057;54.718;18.426;2023-02-01T01:50:37;99556.69;;;3.93;80.25
77106;BME280;66057;54.718;18.426;2023-02-01T01:53:05;99584.63;;;3.93;80.38
77106;BME280;66057;54.718;18.426;2023-02-01T01:55:37;99587.19;;;3.93;80.03
77106;BME280;66057;54.718;18.426;2023-02-01T01:58:09;99563.59;;;3.96;80.66
77106;BME280;66057;54.718;18.426;2023-02-01T02:00:36;99552.34;;;3.91;80.88
77106;BME280;66057;54.718;18.426;2023-02-01T02:06:42;99575.66;;;4.00;80.06
77106;BME280;66057;54.718;18.426;2023-02-01T02:09:10;99539.94;;;3.97;80.44
77106;BME280;66057;54.718;18.426;2023-02-01T02:11:37;99565.84;;;3.90;80.64
77106;BME280;66057;54.718;18.426;2023-02-01T02:14:05;99543.50;;;3.83;80.12
77106;BME280;66057;54.718;18.426;2023-02-01T02:16:43;99536.28;;;3.92;80.30
77106;BME280;66057;54.718;18.426;2023-02-01T02:32:55;99541.22;;;3.89;80.50
77106;BME280;66057;54.718;18.426;2023-02-01T02:38:50;99538.09;;;3.94;80.51
77106;BME280;66057;54.718;18.426;2023-02-01T02:41:19;99544.84;;;3.94;81.03
77106;BME280;66057;54.718;18.426;2023-02-01T02:44:21;99545.66;;;3.93;80.53
77106;BME280;66057;54.718;18.426;2023-02-01T02:47:15;99527.34;;;4.00;79.77
77106;BME280;66057;54.718;18.426;2023-02-01T02:49:56;99550.72;;;4.11;78.85
77106;BME280;66057;54.718;18.426;2023-02-01T02:53:02;99529.75;;;3.97;79.24
77106;BME280;66057;54.718;18.426;2023-02-01T02:55:49;99545.72;;;4.12;78.49
77106;BME280;66057;54.718;18.426;2023-02-01T02:58:16;99549.72;;;4.07;79.32
77106;BME280;66057;54.718;18.426;2023-02-01T03:01:02;99535.91;;;4.20;78.23
77106;BME280;66057;54.718;18.426;2023-02-01T03:03:48;99548.69;;;4.21;77.33
77106;BME280;66057;54.718;18.426;2023-02-01T03:06:39;99538.16;;;4.31;76.76
77106;BME280;66057;54.718;18.426;2023-02-01T03:09:10;99536.19;;;4.26;77.52
77106;BME280;66057;54.718;18.426;2023-02-01T03:11:38;99562.03;;;4.35;77.48
77106;BME280;66057;54.718;18.426;2023-02-01T03:14:26;99532.78;;;4.25;77.35
77106;BME280;66057;54.718;18.426;2023-02-01T03:16:59;99563.22;;;4.24;77.94
77106;BME280;66057;54.718;18.426;2023-02-01T03:19:35;99566.72;;;4.26;77.62
77106;BME280;66057;54.718;18.426;2023-02-01T03:22:08;99558.66;;;4.17;78.69
77106;BME280;66057;54.718;18.426;2023-02-01T03:24:45;99561.56;;;4.07;79.35
77106;BME280;66057;54.718;18.426;2023-02-01T03:27:30;99578.91;;;3.80;83.32
77106;BME280;66057;54.718;18.426;2023-02-01T03:30:11;99582.28;;;3.45;87.35
77106;BME280;66057;54.718;18.426;2023-02-01T03:32:44;99566.97;;;3.27;88.29
77106;BME280;66057;54.718;18.426;2023-02-01T03:43:52;99562.53;;;3.39;89.10
77106;BME280;66057;54.718;18.426;2023-02-01T03:46:29;99569.16;;;3.54;88.13
77106;BME280;66057;54.718;18.426;2023-02-01T03:49:01;99553.16;;;3.38;89.44
77106;BME280;66057;54.718;18.426;2023-02-01T03:51:29;99545.75;;;3.25;89.58
77106;BME280;66057;54.718;18.426;2023-02-01T03:53:56;99559.38;;;3.27;90.43
77106;BME280;66057;54.718;18.426;2023-02-01T03:56:23;99572.84;;;3.42;90.35
77106;BME280;66057;54.718;18.426;2023-02-01T03:58:51;99535.88;;;3.31;89.28
77106;BME280;66057;54.718;18.426;2023-02-01T04:01:27;99578.69;;;3.41;88.18
77106;BME280;66057;54.718;18.426;2023-02-01T04:03:53;99568.09;;;3.32;88.13
77106;BME280;66057;54.718;18.426;2023-02-01T04:06:19;99562.00;;;3.29;88.28
77106;BME280;66057;54.718;18.426;2023-02-01T04:08:45;99569.84;;;3.33;88.39
77106;BME280;66057;54.718;18.426;2023-02-01T04:11:10;99573.69;;;3.25;88.45
77106;BME280;66057;54.718;18.426;2023-02-01T04:13:36;99572.84;;;3.26;88.61
77106;BME280;66057;54.718;18.426;2023-02-01T04:16:02;99567.06;;;3.29;88.47
77106;BME280;66057;54.718;18.426;2023-02-01T04:18:28;99578.56;;;3.38;86.70
77106;BME280;66057;54.718;18.426;2023-02-01T04:20:53;99551.28;;;3.34;86.57
77106;BME280;66057;54.718;18.426;2023-02-01T04:23:19;99565.06;;;3.39;85.55
77106;BME280;66057;54.718;18.426;2023-02-01T04:25:46;99577.34;;;3.48;86.46
77106;BME280;66057;54.718;18.426;2023-02-01T04:28:12;99564.19;;;3.39;86.20
77106;BME280;66057;54.718;18.426;2023-02-01T04:30:37;99567.28;;;3.49;85.63
77106;BME280;66057;54.718;18.426;2023-02-01T04:33:03;99561.53;;;3.54;86.16
77106;BME280;66057;54.718;18.426;2023-02-01T04:35:33;99543.88;;;3.39;86.53
77106;BME280;66057;54.718;18.426;2023-02-01T04:37:59;99563.13;;;3.51;86.42
77106;BME280;66057;54.718;18.426;2023-02-01T04:40:25;99561.16;;;3.46;86.72
77106;BME280;66057;54.718;18.426;2023-02-01T04:42:51;99579.66;;;3.43;87.19
77106;BME280;66057;54.718;18.426;2023-02-01T04:45:16;99580.59;;;3.45;87.89
77106;BME280;66057;54.718;18.426;2023-02-01T04:47:42;99552.81;;;3.48;87.16
77106;BME280;66057;54.718;18.426;2023-02-01T04:50:08;99586.78;;;3.50;86.42
77106;BME280;66057;54.718;18.426;2023-02-01T04:52:36;99580.34;;;3.57;86.75
77106;BME280;66057;54.718;18.426;2023-02-01T04:55:03;99553.06;;;3.71;85.04
77106;BME280;66057;54.718;18.426;2023-02-01T04:57:29;99563.38;;;3.74;85.19
77106;BME280;66057;54.718;18.426;2023-02-01T04:59:55;99566.16;;;3.78;84.90
77106;BME280;66057;54.718;18.426;2023-02-01T05:02:20;99547.75;;;3.84;84.24
77106;BME280;66057;54.718;18.426;2023-02-01T05:04:46;99551.13;;;3.83;84.67
77106;BME280;66057;54.718;18.426;2023-02-01T05:07:12;99549.72;;;3.89;85.26
77106;BME280;66057;54.718;18.426;2023-02-01T05:09:38;99532.78;;;3.90;84.22
77106;BME280;66057;54.718;18.426;2023-02-01T05:12:04;99507.38;;;3.90;83.74
77106;BME280;66057;54.718;18.426;2023-02-01T05:14:48;99546.03;;;3.83;84.62
77106;BME280;66057;54.718;18.426;2023-02-01T05:17:14;99549.50;;;3.85;84.55
77106;BME280;66057;54.718;18.426;2023-02-01T05:19:40;99549.84;;;3.75;85.59
77106;BME280;66057;54.718;18.426;2023-02-01T05:22:05;99551.47;;;3.73;86.07
77106;BME280;66057;54.718;18.426;2023-02-01T05:24:31;99580.06;;;3.69;88.17
77106;BME280;66057;54.718;18.426;2023-02-01T05:26:57;99543.97;;;3.58;87.76
77106;BME280;66057;54.718;18.426;2023-02-01T05:29:22;99552.38;;;3.57;88.24
77106;BME280;66057;54.718;18.426;2023-02-01T05:31:48;99545.50;;;3.55;88.18
77106;BME280;66057;54.718;18.426;2023-02-01T05:34:15;99583.66;;;3.56;90.32
77106;BME280;66057;54.718;18.426;2023-02-01T05:36:41;99568.53;;;3.41;90.38
77106;BME280;66057;54.718;18.426;2023-02-01T05:39:06;99578.19;;;3.31;92.19
77106;BME280;66057;54.718;18.426;2023-02-01T05:41:32;99575.03;;;3.19;93.17
77106;BME280;66057;54.718;18.426;2023-02-01T05:43:58;99555.44;;;3.16;92.04
77106;BME280;66057;54.718;18.426;2023-02-01T05:46:24;99580.84;;;3.16;92.11
77106;BME280;66057;54.718;18.426;2023-02-01T05:48:49;99581.88;;;3.37;92.43
77106;BME280;66057;54.718;18.426;2023-02-01T05:51:15;99557.50;;;3.41;92.70
77106;BME280;66057;54.718;18.426;2023-02-01T05:53:41;99562.59;;;3.41;92.09
77106;BME280;66057;54.718;18.426;2023-02-01T05:56:07;99592.56;;;3.64;90.90
77106;BME280;66057;54.718;18.426;2023-02-01T05:58:32;99556.84;;;3.79;89.60
77106;BME280;66057;54.718;18.426;2023-02-01T06:00:59;99589.94;;;3.80;89.84
77106;BME280;66057;54.718;18.426;2023-02-01T06:03:26;99578.91;;;3.80;89.18
77106;BME280;66057;54.718;18.426;2023-02-01T06:05:52;99586.03;;;3.87;89.01
77106;BME280;66057;54.718;18.426;2023-02-01T06:08:17;99591.56;;;3.96;87.52
77106;BME280;66057;54.718;18.426;2023-02-01T06:10:43;99554.00;;;3.90;86.93
77106;BME280;66057;54.718;18.426;2023-02-01T06:13:09;99614.53;;;3.98;87.97
77106;BME280;66057;54.718;18.426;2023-02-01T06:15:35;99608.78;;;4.02;86.84
77106;BME280;66057;54.718;18.426;2023-02-01T06:18:03;99598.03;;;4.07;86.67
77106;BME280;66057;54.718;18.426;2023-02-01T06:20:29;99585.47;;;4.10;86.31
77106;BME280;66057;54.718;18.426;2023-02-01T06:22:55;99563.94;;;4.04;85.20
77106;BME280;66057;54.718;18.426;2023-02-01T06:25:21;99550.94;;;4.15;84.51
77106;BME280;66057;54.718;18.426;2023-02-01T06:27:47;99573.16;;;4.19;84.06
77106;BME280;66057;54.718;18.426;2023-02-01T06:30:14;99621.19;;;4.13;84.98
77106;BME280;66057;54.718;18.426;2023-02-01T06:32:40;99601.28;;;4.22;85.00
77106;BME280;66057;54.718;18.426;2023-02-01T06:35:07;99608.78;;;4.19;84.96
77106;BME280;66057;54.718;18.426;2023-02-01T06:37:36;99624.03;;;4.19;85.15
77106;BME280;66057;54.718;18.426;2023-02-01T06:40:03;99579.41;;;4.26;84.04
77106;BME280;66057;54.718;18.426;2023-02-01T06:42:29;99629.25;;;4.22;83.43
77106;BME280;66057;54.718;18.426;2023-02-01T06:44:55;99564.09;;;4.24;83.60
77106;BME280;66057;54.718;18.426;2023-02-01T06:47:20;99558.69;;;4.36;82.64
77106;BME280;66057;54.718;18.426;2023-02-01T06:49:46;99596.91;;;4.37;82.87
77106;BME280;66057;54.718;18.426;2023-02-01T06:52:12;99585.84;;;4.37;81.96
77106;BME280;66057;54.718;18.426;2023-02-01T06:54:38;99559.06;;;4.26;82.74
77106;BME280;66057;54.718;18.426;2023-02-01T06:57:04;99563.34;;;4.27;83.11
77106;BME280;66057;54.718;18.426;2023-02-01T06:59:30;99613.78;;;4.35;82.99
77106;BME280;66057;54.718;18.426;2023-02-01T07:01:55;99625.41;;;4.30;84.01
77106;BME280;66057;54.718;18.426;2023-02-01T07:04:21;99583.94;;;4.31;83.10
77106;BME280;66057;54.718;18.426;2023-02-01T07:06:47;99586.31;;;4.28;83.55
77106;BME280;66057;54.718;18.426;2023-02-01T07:09:13;99604.84;;;4.08;84.75
77106;BME280;66057;54.718;18.426;2023-02-01T07:11:39;99599.41;;;4.01;85.54
77106;BME280;66057;54.718;18.426;2023-02-01T07:14:09;99586.78;;;4.02;86.08
77106;BME280;66057;54.718;18.426;2023-02-01T07:16:35;99613.28;;;4.07;84.97
77106;BME280;66057;54.718;18.426;2023-02-01T07:19:01;99581.09;;;3.90;85.19
77106;BME280;66057;54.718;18.426;2023-02-01T07:21:27;99609.66;;;4.02;85.30
77106;BME280;66057;54.718;18.426;2023-02-01T07:23:54;99604.41;;;3.99;85.21
77106;BME280;66057;54.718;18.426;2023-02-01T07:26:20;99611.03;;;3.95;86.94
77106;BME280;66057;54.718;18.426;2023-02-01T07:28:46;99632.59;;;4.04;85.67
77106;BME280;66057;54.718;18.426;2023-02-01T07:31:14;99612.19;;;4.02;85.85
77106;BME280;66057;54.718;18.426;2023-02-01T07:33:41;99625.84;;;4.04;86.10
77106;BME280;66057;54.718;18.426;2023-02-01T07:36:11;99646.97;;;4.03;85.80
77106;BME280;66057;54.718;18.426;2023-02-01T07:38:37;99638.72;;;4.07;85.26
77106;BME280;66057;54.718;18.426;2023-02-01T07:41:04;99615.09;;;4.10;85.41
77106;BME280;66057;54.718;18.426;2023-02-01T07:43:31;99613.19;;;4.23;82.42
77106;BME280;66057;54.718;18.426;2023-02-01T07:45:58;99572.81;;;4.29;81.89
77106;BME280;66057;54.718;18.426;2023-02-01T07:48:25;99647.66;;;4.34;81.68
77106;BME280;66057;54.718;18.426;2023-02-01T07:51:05;99643.50;;;4.36;81.39
77106;BME280;66057;54.718;18.426;2023-02-01T07:53:32;99660.44;;;4.36;81.98
77106;BME280;66057;54.718;18.426;2023-02-01T07:55:58;99602.16;;;4.41;81.40
77106;BME280;66057;54.718;18.426;2023-02-01T07:58:26;99641.91;;;4.38;81.61
77106;BME280;66057;54.718;18.426;2023-02-01T08:00:52;99625.63;;;4.35;81.33
77106;BME280;66057;54.718;18.426;2023-02-01T08:03:36;99643.88;;;4.44;80.68
77106;BME280;66057;54.718;18.426;2023-02-01T08:06:02;99625.31;;;4.47;79.60
77106;BME280;66057;54.718;18.426;2023-02-01T08:08:28;99656.94;;;4.52;79.34
77106;BME280;66057;54.718;18.426;2023-02-01T08:11:01;99656.94;;;4.52;80.12
77106;BME280;66057;54.718;18.426;2023-02-01T08:13:27;99605.91;;;4.49;78.95
77106;BME280;66057;54.718;18.426;2023-02-01T08:16:01;99651.25;;;4.57;79.43
77106;BME280;66057;54.718;18.426;2023-02-01T08:18:28;99663.97;;;4.57;79.86
77106;BME280;66057;54.718;18.426;2023-02-01T08:20:54;99660.97;;;4.66;78.32
77106;BME280;66057;54.718;18.426;2023-02-01T08:23:21;99612.38;;;4.60;79.22
77106;BME280;66057;54.718;18.426;2023-02-01T08:25:47;99633.16;;;4.69;78.17
77106;BME280;66057;54.718;18.426;2023-02-01T08:28:13;99644.25;;;4.71;77.31
77106;BME280;66057;54.718;18.426;2023-02-01T08:30:39;99642.66;;;4.73;77.97
77106;BME280;66057;54.718;18.426;2023-02-01T08:33:06;99644.25;;;4.71;77.56
77106;BME280;66057;54.718;18.426;2023-02-01T08:35:35;99643.25;;;4.67;77.99
77106;BME280;66057;54.718;18.426;2023-02-01T08:38:01;99664.81;;;4.75;77.96
77106;BME280;66057;54.718;18.426;2023-02-01T08:40:27;99639.16;;;4.71;78.52
77106;BME280;66057;54.718;18.426;2023-02-01T08:42:53;99672.75;;;4.81;78.45
77106;BME280;66057;54.718;18.426;2023-02-01T08:45:20;99664.25;;;4.81;78.78
77106;BME280;66057;54.718;18.426;2023-02-01T08:47:46;99689.84;;;4.84;78.85
77106;BME280;66057;54.718;18.426;2023-02-01T08:50:13;99685.28;;;4.77;78.87
77106;BME280;66057;54.718;18.426;2023-02-01T08:52:40;99674.97;;;4.74;78.76
77106;BME280;66057;54.718;18.426;2023-02-01T08:55:06;99680.31;;;4.80;78.15
77106;BME280;66057;54.718;18.426;2023-02-01T08:57:33;99697.63;;;4.87;78.19
77106;BME280;66057;54.718;18.426;2023-02-01T08:59:59;99696.84;;;4.88;77.30
77106;BME280;66057;54.718;18.426;2023-02-01T09:02:26;99682.47;;;4.90;77.80
77106;BME280;66057;54.718;18.426;2023-02-01T09:04:52;99684.09;;;4.88;77.32
77106;BME280;66057;54.718;18.426;2023-02-01T09:07:18;99677.47;;;4.92;76.80
77106;BME280;66057;54.718;18.426;2023-02-01T09:09:45;99676.72;;;4.94;76.43
77106;BME280;66057;54.718;18.426;2023-02-01T09:12:11;99709.09;;;4.97;75.58
77106;BME280;66057;54.718;18.426;2023-02-01T09:14:37;99681.00;;;4.95;76.02
77106;BME280;66057;54.718;18.426;2023-02-01T09:17:02;99686.19;;;4.97;76.56
77106;BME280;66057;54.718;18.426;2023-02-01T09:19:28;99694.78;;;4.99;76.00
77106;BME280;66057;54.718;18.426;2023-02-01T09:21:54;99698.84;;;4.95;75.73
77106;BME280;66057;54.718;18.426;2023-02-01T09:24:20;99709.97;;;4.97;76.03
77106;BME280;66057;54.718;18.426;2023-02-01T09:26:46;99676.13;;;5.00;75.59
77106;BME280;66057;54.718;18.426;2023-02-01T09:29:11;99681.28;;;5.01;75.63
77106;BME280;66057;54.718;18.426;2023-02-01T09:31:38;99698.31;;;5.02;75.31
77106;BME280;66057;54.718;18.426;2023-02-01T09:34:04;99675.53;;;5.05;74.71
77106;BME280;66057;54.718;18.426;2023-02-01T09:36:31;99676.50;;;5.07;74.34
77106;BME280;66057;54.718;18.426;2023-02-01T09:38:57;99687.47;;;5.06;74.42
77106;BME280;66057;54.718;18.426;2023-02-01T09:46:48;99674.44;;;5.18;73.23
77106;BME280;66057;54.718;18.426;2023-02-01T09:49:22;99673.66;;;5.20;72.32
77106;BME280;66057;54.718;18.426;2023-02-01T09:51:51;99672.09;;;5.22;72.60
77106;BME280;66057;54.718;18.426;2023-02-01T09:54:20;99699.69;;;5.33;72.55
77106;BME280;66057;54.718;18.426;2023-02-01T09:56:51;99676.34;;;5.43;71.54
77106;BME280;66057;54.718;18.426;2023-02-01T10:01:47;99683.88;;;5.40;70.56
77106;BME280;66057;54.718;18.426;2023-02-01T10:04:14;99666.09;;;5.41;71.09
77106;BME280;66057;54.718;18.426;2023-02-01T10:09:19;99665.94;;;5.38;71.29
77106;BME280;66057;54.718;18.426;2023-02-01T10:25:28;99637.13;;;5.79;70.74
77106;BME280;66057;54.718;18.426;2023-02-01T10:28:00;99761.59;;;5.68;70.59
77106;BME280;66057;54.718;18.426;2023-02-01T10:30:31;99617.47;;;5.56;71.44
77106;BME280;66057;54.718;18.426;2023-02-01T10:33:55;99661.03;;;5.62;72.37
77106;BME280;66057;54.718;18.426;2023-02-01T10:38:57;99637.75;;;5.74;71.69
77106;BME280;66057;54.718;18.426;2023-02-01T10:41:36;99643.56;;;5.71;71.41
77106;BME280;66057;54.718;18.426;2023-02-01T10:44:05;99652.09;;;5.51;71.22
77106;BME280;66057;54.718;18.426;2023-02-01T10:46:33;99655.97;;;5.43;72.31
77106;BME280;66057;54.718;18.426;2023-02-01T10:49:02;99657.59;;;5.41;72.83
77106;BME280;66057;54.718;18.426;2023-02-01T10:51:36;99670.25;;;5.39;73.22
77106;BME280;66057;54.718;18.426;2023-02-01T10:54:17;99635.94;;;5.31;73.53
77106;BME280;66057;54.718;18.426;2023-02-01T10:56:46;99666.44;;;5.30;74.23
77106;BME280;66057;54.718;18.426;2023-02-01T10:59:21;99658.91;;;5.33;74.71
77106;BME280;66057;54.718;18.426;2023-02-01T11:01:49;99675.03;;;5.32;73.74
77106;BME280;66057;54.718;18.426;2023-02-01T11:04:19;99652.69;;;5.26;73.45
77106;BME280;66057;54.718;18.426;2023-02-01T11:07:04;99658.28;;;5.17;73.42
77106;BME280;66057;54.718;18.426;2023-02-01T11:09:38;99659.84;;;5.15;73.91
77106;BME280;66057;54.718;18.426;2023-02-01T11:12:06;99666.44;;;5.10;75.56
77106;BME280;66057;54.718;18.426;2023-02-01T11:14:47;99680.41;;;5.01;76.04
77106;BME280;66057;54.718;18.426;2023-02-01T11:19:47;99688.19;;;5.04;77.22
77106;BME280;66057;54.718;18.426;2023-02-01T11:22:21;99688.41;;;4.89;78.65
77106;BME280;66057;54.718;18.426;2023-02-01T11:24:47;99684.16;;;4.90;78.95
77106;BME280;66057;54.718;18.426;2023-02-01T11:27:21;99707.31;;;4.76;80.86
77106;BME280;66057;54.718;18.426;2023-02-01T11:29:51;99686.53;;;4.50;83.43
77106;BME280;66057;54.718;18.426;2023-02-01T11:32:20;99693.66;;;4.39;84.72
77106;BME280;66057;54.718;18.426;2023-02-01T11:35:07;99691.69;;;4.33;85.71
77106;BME280;66057;54.718;18.426;2023-02-01T11:37:41;99699.44;;;4.19;85.98
77106;BME280;66057;54.718;18.426;2023-02-01T11:42:56;99693.25;;;4.14;85.26
77106;BME280;66057;54.718;18.426;2023-02-01T11:45:27;99697.91;;;4.22;84.21
77106;BME280;66057;54.718;18.426;2023-02-01T11:47:56;99688.78;;;4.26;84.35
77106;BME280;66057;54.718;18.426;2023-02-01T11:55:46;99696.31;;;4.77;83.51
77106;BME280;66057;54.718;18.426;2023-02-01T11:58:45;99682.78;;;5.15;81.65
77106;BME280;66057;54.718;18.426;2023-02-01T12:21:09;99685.00;;;5.65;76.20
77106;BME280;66057;54.718;18.426;2023-02-01T12:26:46;99668.19;;;5.50;75.78
77106;BME280;66057;54.718;18.426;2023-02-01T12:45:46;99683.13;;;6.01;70.34
77106;BME280;66057;54.718;18.426;2023-02-01T12:48:28;99684.31;;;6.09;70.39
77106;BME280;66057;54.718;18.426;2023-02-01T12:51:01;99672.84;;;5.79;71.89
77106;BME280;66057;54.718;18.426;2023-02-01T12:53:50;99678.72;;;5.78;72.43
77106;BME280;66057;54.718;18.426;2023-02-01T12:56:31;99694.44;;;5.87;72.79
77106;BME280;66057;54.718;18.426;2023-02-01T12:59:02;99675.59;;;6.04;72.29
77106;BME280;66057;54.718;18.426;2023-02-01T13:01:40;99682.22;;;5.99;72.45
77106;BME280;66057;54.718;18.426;2023-02-01T13:04:30;99676.31;;;5.41;73.44
77106;BME280;66057;54.718;18.426;2023-02-01T13:12:00;99699.13;;;5.78;72.36
77106;BME280;66057;54.718;18.426;2023-02-01T13:14:38;99684.50;;;5.74;72.40
77106;BME280;66057;54.718;18.426;2023-02-01T13:17:17;99678.53;;;4.97;74.51
77106;BME280;66057;54.718;18.426;2023-02-01T13:22:27;99715.69;;;4.74;76.09
77106;BME280;66057;54.718;18.426;2023-02-01T13:25:03;99717.59;;;4.60;77.71
77106;BME280;66057;54.718;18.426;2023-02-01T13:27:30;99723.97;;;4.34;79.11
77106;BME280;66057;54.718;18.426;2023-02-01T13:30:01;99731.09;;;4.08;82.05
77106;BME280;66057;54.718;18.426;2023-02-01T13:41:32;99737.31;;;3.63;87.23
77106;BME280;66057;54.718;18.426;2023-02-01T13:44:00;99747.44;;;3.46;87.63
77106;BME280;66057;54.718;18.426;2023-02-01T13:46:27;99738.50;;;3.53;86.93
77106;BME280;66057;54.718;18.426;2023-02-01T13:49:01;99738.59;;;3.55;86.07
77106;BME280;66057;54.718;18.426;2023-02-01T13:54:00;99749.69;;;3.40;87.13
77106;BME280;66057;54.718;18.426;2023-02-01T13:56:26;99744.44;;;3.37;86.63
77106;BME280;66057;54.718;18.426;2023-02-01T13:58:52;99743.41;;;3.34;87.02
77106;BME280;66057;54.718;18.426;2023-02-01T14:03:53;99755.88;;;3.29;87.61
77106;BME280;66057;54.718;18.426;2023-02-01T14:19:26;99741.56;;;3.15;87.91
77106;BME280;66057;54.718;18.426;2023-02-01T14:22:00;99738.84;;;3.12;88.72
77106;BME280;66057;54.718;18.426;2023-02-01T14:24:32;99743.13;;;3.13;88.41
77106;BME280;66057;54.718;18.426;2023-02-01T14:27:01;99742.78;;;3.07;88.32
77106;BME280;66057;54.718;18.426;2023-02-01T14:29:38;99739.03;;;3.15;88.25
77106;BME280;66057;54.718;18.426;2023-02-01T14:32:16;99748.41;;;3.16;89.10
77106;BME280;66057;54.718;18.426;2023-02-01T14:39:49;99765.16;;;3.29;88.08
77106;BME280;66057;54.718;18.426;2023-02-01T14:42:26;99766.34;;;3.35;87.80
77106;BME280;66057;54.718;18.426;2023-02-01T14:44:56;99751.66;;;3.30;87.61
77106;BME280;66057;54.718;18.426;2023-02-01T14:47:40;99758.97;;;3.40;87.92
77106;BME280;66057;54.718;18.426;2023-02-01T14:52:58;99769.38;;;3.44;86.62
77106;BME280;66057;54.718;18.426;2023-02-01T14:58:01;99779.94;;;3.52;86.36
77106;BME280;66057;54.718;18.426;2023-02-01T15:00:29;99782.69;;;3.57;86.48
77106;BME280;66057;54.718;18.426;2023-02-01T15:03:16;99769.66;;;3.50;85.85
77106;BME280;66057;54.718;18.426;2023-02-01T15:05:54;99764.53;;;3.49;85.32
77106;BME280;66057;54.718;18.426;2023-02-01T15:08:26;99779.03;;;3.51;85.02
77106;BME280;66057;54.718;18.426;2023-02-01T15:10:54;99760.63;;;3.39;84.98
77106;BME280;66057;54.718;18.426;2023-02-01T15:13:23;99766.97;;;3.47;85.95
77106;BME280;66057;54.718;18.426;2023-02-01T15:18:33;99777.88;;;3.45;85.38
77106;BME280;66057;54.718;18.426;2023-02-01T15:21:01;99782.06;;;3.44;85.42
77106;BME280;66057;54.718;18.426;2023-02-01T15:23:27;99772.47;;;3.39;85.75
77106;BME280;66057;54.718;18.426;2023-02-01T15:25:56;99785.06;;;3.37;86.18
77106;BME280;66057;54.718;18.426;2023-02-01T15:28:22;99785.84;;;3.36;85.82
77106;BME280;66057;54.718;18.426;2023-02-01T15:30:57;99788.16;;;3.32;86.10
77106;BME280;66057;54.718;18.426;2023-02-01T15:33:24;99784.81;;;3.33;85.82
77106;BME280;66057;54.718;18.426;2023-02-01T15:35:56;99790.69;;;3.32;86.83
77106;BME280;66057;54.718;18.426;2023-02-01T15:39:14;99793.22;;;3.32;86.68
77106;BME280;66057;54.718;18.426;2023-02-01T15:42:12;99801.22;;;3.23;86.82
77106;BME280;66057;54.718;18.426;2023-02-01T15:44:44;99787.28;;;3.31;87.04
77106;BME280;66057;54.718;18.426;2023-02-01T15:47:19;99788.34;;;3.35;86.84
77106;BME280;66057;54.718;18.426;2023-02-01T15:49:47;99795.22;;;3.37;87.46